Time;durP1;ratioP1;P1;durP2;ratioP2;P2;SDS_P1;SDS_P2;PMS_P1;PMS_P2;Temp;Humidity;BMP_temperature;BMP_pressure;BME280_temperature;BME280_humidity;BME280_pressure;Samples;Min_cycle;Max_cycle;Signal;HPM_P1;HPM_P2
2023/07/03 00:00:17;;;;;;;2.17;1.45;;;;;;;21.84;76.95;100220.44;5070793;28;20048;-70
2023/07/03 00:02:52;;;;;;;4.43;1.27;;;;;;;21.85;76.79;100227.38;5072801;28;20506;-71
2023/07/03 00:05:19;;;;;;;1.90;1.42;;;;;;;21.84;77.01;100228.41;5073007;28;20040;-70
2023/07/03 00:07:51;;;;;;;3.25;1.38;;;;;;;21.82;77.11;100220.66;5063955;28;20067;-70
2023/07/03 00:10:17;;;;;;;1.80;1.15;;;;;;;21.80;77.29;100216.63;5068894;28;20182;-70
2023/07/03 00:12:44;;;;;;;2.15;1.42;;;;;;;21.85;76.16;100220.22;5067173;28;20819;-70
2023/07/03 00:15:10;;;;;;;2.58;1.60;;;;;;;21.94;75.57;100218.06;5065582;28;20186;-70
2023/07/03 00:17:44;;;;;;;2.65;1.75;;;;;;;22.04;75.00;100215.72;5065282;28;20438;-70
2023/07/03 00:20:14;;;;;;;3.25;2.05;;;;;;;22.10;76.10;100222.78;5073184;28;20089;-70
2023/07/03 00:22:41;;;;;;;2.75;2.17;;;;;;;22.09;76.76;100221.16;5068405;28;20116;-70
2023/07/03 00:25:09;;;;;;;3.30;2.70;;;;;;;22.08;78.31;100219.56;5070496;28;20062;-70
2023/07/03 00:27:35;;;;;;;4.72;2.47;;;;;;;22.04;78.84;100218.38;5069029;28;20044;-70
2023/07/03 00:30:02;;;;;;;4.20;2.25;;;;;;;22.06;78.98;100224.28;5075997;28;20043;-70
2023/07/03 00:32:31;;;;;;;3.92;2.20;;;;;;;22.05;79.20;100217.34;5077286;28;20054;-70
2023/07/03 00:34:57;;;;;;;4.88;1.90;;;;;;;22.05;78.77;100216.53;5069749;28;20040;-71
2023/07/03 00:37:22;;;;;;;4.78;1.77;;;;;;;22.09;77.40;100213.22;5067335;28;20060;-71
2023/07/03 00:39:48;;;;;;;2.58;1.38;;;;;;;22.09;76.69;100215.06;5068820;28;20042;-71
2023/07/03 00:42:15;;;;;;;5.03;1.42;;;;;;;22.05;76.66;100212.03;5074614;28;20087;-71
2023/07/03 00:44:42;;;;;;;2.00;1.55;;;;;;;22.04;76.66;100207.78;5066326;28;20024;-71
2023/07/03 00:47:12;;;;;;;4.93;1.50;;;;;;;22.06;78.04;100215.50;5069434;28;20040;-70
2023/07/03 00:49:37;;;;;;;1.70;1.27;;;;;;;22.03;78.41;100215.94;5066781;28;20053;-71
2023/07/03 00:52:04;;;;;;;4.32;1.52;;;;;;;21.98;78.48;100213.13;5070924;28;20082;-70
2023/07/03 00:54:30;;;;;;;2.35;1.52;;;;;;;21.95;78.14;100209.09;5069986;28;20035;-70
2023/07/03 00:56:56;;;;;;;2.88;1.83;;;;;;;21.93;78.13;100203.19;5073475;28;20032;-71
2023/07/03 00:59:23;;;;;;;2.83;1.88;;;;;;;21.86;78.55;100208.59;5065426;28;20020;-71
2023/07/03 01:02:13;;;;;;;3.75;1.40;;;;;;;21.82;79.13;100210.06;5073118;28;20037;-71
2023/07/03 01:05:05;;;;;;;3.60;1.27;;;;;;;21.84;78.90;100217.78;5074182;28;20069;-70
2023/07/03 01:07:33;;;;;;;7.28;1.98;;;;;;;21.94;79.72;100218.06;5077571;28;20141;-70
2023/07/03 01:10:11;;;;;;;3.47;1.92;;;;;;;21.94;80.49;100212.78;5069665;28;20067;-70
2023/07/03 01:12:41;;;;;;;3.50;2.17;;;;;;;21.90;81.49;100214.25;5064312;28;20041;-72
2023/07/03 01:15:12;;;;;;;3.22;2.33;;;;;;;21.90;82.75;100213.44;5069535;28;20071;-72
2023/07/03 01:17:40;;;;;;;4.35;2.63;;;;;;;21.79;83.49;100215.81;5071979;28;20043;-72
2023/07/03 01:20:09;;;;;;;4.95;2.45;;;;;;;21.72;84.66;100222.25;5071131;28;20047;-72
2023/07/03 01:22:49;;;;;;;3.45;2.25;;;;;;;21.44;87.49;100223.59;5076332;28;20032;-71
2023/07/03 01:25:19;;;;;;;2.97;2.53;;;;;;;21.25;88.97;100219.34;5070145;28;20127;-72
2023/07/03 01:27:50;;;;;;;3.35;2.28;;;;;;;21.19;90.17;100215.69;5061262;28;20027;-71
2023/07/03 01:30:20;;;;;;;5.18;2.53;;;;;;;21.14;90.10;100218.19;5068869;28;20093;-72
2023/07/03 01:32:52;;;;;;;3.33;2.60;;;;;;;21.07;90.24;100216.63;5073851;28;20098;-72
2023/07/03 01:35:19;;;;;;;4.15;2.40;;;;;;;21.12;90.50;100212.28;5075471;28;20059;-71
2023/07/03 01:37:47;;;;;;;5.18;2.75;;;;;;;21.15;90.41;100219.00;5073476;28;20040;-71
2023/07/03 01:40:19;;;;;;;4.15;2.40;;;;;;;21.20;89.54;100219.16;5072659;28;20751;-72
2023/07/03 01:42:46;;;;;;;4.25;2.60;;;;;;;21.27;89.04;100219.13;5071104;28;20369;-72
2023/07/03 01:45:13;;;;;;;3.90;2.47;;;;;;;21.31;88.71;100217.63;5071815;28;20028;-72
2023/07/03 01:47:39;;;;;;;3.25;2.45;;;;;;;21.34;89.08;100225.94;5075922;28;20036;-72
2023/07/03 01:50:10;;;;;;;4.38;2.28;;;;;;;21.42;88.79;100217.69;5068288;28;20435;-72
2023/07/03 01:52:42;;;;;;;6.22;2.47;;;;;;;21.48;88.20;100223.97;5068241;28;20054;-72
2023/07/03 01:55:39;;;;;;;7.38;2.55;;;;;;;21.55;87.59;100224.69;5072161;28;20080;-72
2023/07/03 01:58:29;;;;;;;2.25;1.95;;;;;;;21.56;86.92;100215.72;5068614;28;20102;-72
2023/07/03 02:01:06;;;;;;;4.57;1.85;;;;;;;21.61;86.90;100217.69;5072861;28;20121;-72
2023/07/03 02:04:12;;;;;;;3.08;2.75;;;;;;;21.65;86.23;100219.69;5065529;28;20085;-72
2023/07/03 02:06:43;;;;;;;6.68;2.30;;;;;;;21.69;86.51;100228.81;5081456;28;20090;-72
2023/07/03 02:09:09;;;;;;;2.42;1.77;;;;;;;21.71;87.04;100240.00;5079559;28;20040;-72
2023/07/03 02:11:35;;;;;;;2.88;2.55;;;;;;;21.72;88.78;100236.31;5066814;28;20399;-71
2023/07/03 02:14:01;;;;;;;3.15;2.25;;;;;;;21.64;89.31;100243.75;5078279;28;20069;-72
2023/07/03 02:16:31;;;;;;;6.90;2.22;;;;;;;21.62;91.00;100245.81;5082614;28;20032;-72
2023/07/03 02:19:00;;;;;;;2.72;2.00;;;;;;;21.58;91.53;100244.66;5071621;28;20053;-72
2023/07/03 02:21:28;;;;;;;3.17;2.88;;;;;;;21.52;92.30;100249.00;5079484;28;20043;-72
2023/07/03 02:23:53;;;;;;;3.30;2.33;;;;;;;21.48;93.12;100253.13;5077029;28;20024;-71
2023/07/03 02:26:20;;;;;;;3.03;1.92;;;;;;;21.45;93.98;100267.63;5066816;28;20558;-71
2023/07/03 02:28:46;;;;;;;6.72;2.40;;;;;;;21.35;94.92;100269.97;5073079;28;20071;-73
2023/07/03 02:31:11;;;;;;;3.50;2.45;;;;;;;21.25;95.56;100267.03;5074697;28;20496;-72
2023/07/03 02:33:37;;;;;;;5.00;2.55;;;;;;;21.20;96.54;100262.34;5070664;28;20115;-71
2023/07/03 02:36:04;;;;;;;4.65;3.17;;;;;;;21.12;98.15;100272.41;5074155;28;20496;-71
2023/07/03 02:38:30;;;;;;;3.67;2.95;;;;;;;20.98;100.00;100273.53;5070706;28;20044;-72
2023/07/03 02:40:56;;;;;;;4.35;3.95;;;;;;;20.77;100.00;100264.97;5073218;28;20038;-72
2023/07/03 02:43:22;;;;;;;4.18;2.95;;;;;;;20.66;100.00;100270.97;5069449;28;20119;-72
2023/07/03 02:45:48;;;;;;;5.22;3.78;;;;;;;20.58;100.00;100270.41;5074192;28;20131;-72
2023/07/03 02:48:15;;;;;;;5.93;3.38;;;;;;;20.46;100.00;100270.28;5069110;28;20044;-72
2023/07/03 02:50:41;;;;;;;6.82;3.67;;;;;;;20.33;100.00;100272.97;5065657;28;20040;-71
2023/07/03 02:53:07;;;;;;;5.35;3.95;;;;;;;20.13;100.00;100273.09;5073083;28;20032;-72
2023/07/03 02:55:33;;;;;;;4.28;3.35;;;;;;;20.00;100.00;100273.16;5066287;28;20033;-73
2023/07/03 02:57:59;;;;;;;3.70;3.28;;;;;;;19.97;100.00;100261.16;5068151;28;20033;-73
2023/07/03 03:00:25;;;;;;;4.80;2.90;;;;;;;20.03;100.00;100249.75;5064469;28;20055;-72
2023/07/03 03:02:50;;;;;;;4.88;2.75;;;;;;;19.99;100.00;100251.19;5074789;28;20112;-74
2023/07/03 03:05:16;;;;;;;5.85;2.83;;;;;;;19.98;100.00;100244.28;5076952;28;20028;-74
2023/07/03 03:07:42;;;;;;;4.20;2.60;;;;;;;19.95;100.00;100244.69;5075261;28;20032;-74
2023/07/03 03:10:10;;;;;;;6.38;2.83;;;;;;;19.84;100.00;100245.38;5072687;28;20468;-74
2023/07/03 03:12:35;;;;;;;4.65;3.25;;;;;;;19.74;100.00;100240.53;5071371;28;20210;-75
2023/07/03 03:15:01;;;;;;;5.60;3.28;;;;;;;19.35;100.00;100236.16;5073791;28;20068;-76
2023/07/03 03:17:26;;;;;;;4.18;2.70;;;;;;;19.17;100.00;100243.91;5079205;28;20040;-76
2023/07/03 03:19:52;;;;;;;4.78;3.33;;;;;;;19.03;100.00;100239.66;5070727;28;20130;-74
2023/07/03 03:22:18;;;;;;;3.42;2.63;;;;;;;18.92;100.00;100238.44;5072957;28;20028;-74
2023/07/03 03:24:43;;;;;;;3.92;2.90;;;;;;;18.84;100.00;100236.84;5073241;28;20016;-76
2023/07/03 03:27:09;;;;;;;3.50;2.70;;;;;;;18.83;100.00;100239.69;5079092;28;20032;-75
2023/07/03 03:29:38;;;;;;;4.50;2.85;;;;;;;18.82;100.00;100238.06;5078916;28;20054;-75
2023/07/03 03:32:05;;;;;;;6.55;2.47;;;;;;;18.77;100.00;100241.31;5075484;28;20028;-75
2023/07/03 03:34:34;;;;;;;5.20;2.00;;;;;;;18.78;100.00;100242.13;5077658;28;20024;-75
2023/07/03 03:37:00;;;;;;;3.47;2.63;;;;;;;18.77;100.00;100246.59;5058054;28;20115;-75
2023/07/03 03:39:25;;;;;;;3.00;2.70;;;;;;;18.80;100.00;100246.19;5055944;28;20035;-75
2023/07/03 03:41:51;;;;;;;3.10;2.60;;;;;;;18.79;100.00;100249.03;5058015;28;20054;-75
2023/07/03 03:44:18;;;;;;;4.30;3.03;;;;;;;18.88;100.00;100243.34;5056936;28;20025;-75
2023/07/03 03:46:45;;;;;;;4.20;3.40;;;;;;;18.99;100.00;100251.66;5053071;28;21208;-74
2023/07/03 03:49:10;;;;;;;3.78;2.97;;;;;;;19.06;100.00;100255.09;5056811;28;20189;-75
2023/07/03 03:51:37;;;;;;;4.65;2.83;;;;;;;19.10;100.00;100258.94;5061048;28;20134;-75
2023/07/03 03:54:05;;;;;;;5.00;3.50;;;;;;;19.10;100.00;100245.75;5056057;28;20045;-75
2023/07/03 03:56:34;;;;;;;4.35;2.97;;;;;;;18.99;100.00;100241.91;5058084;28;20044;-74
2023/07/03 03:59:00;;;;;;;4.43;2.72;;;;;;;18.93;100.00;100242.72;5056527;28;20048;-75
2023/07/03 04:01:26;;;;;;;4.93;2.40;;;;;;;18.90;100.00;100235.22;5055477;28;20025;-75
2023/07/03 04:03:51;;;;;;;3.40;2.80;;;;;;;18.93;100.00;100239.25;5060754;28;20064;-75
2023/07/03 04:06:17;;;;;;;3.97;2.65;;;;;;;18.98;100.00;100239.47;5061485;28;20085;-75
2023/07/03 04:08:43;;;;;;;4.22;3.00;;;;;;;19.04;100.00;100231.53;5058842;28;20037;-77
2023/07/03 04:11:10;;;;;;;4.35;2.65;;;;;;;19.12;100.00;100238.44;5082840;28;20033;-75
2023/07/03 04:13:35;;;;;;;4.57;2.92;;;;;;;19.14;100.00;100233.75;5076117;28;20040;-76
2023/07/03 04:16:03;;;;;;;5.40;3.75;;;;;;;19.21;100.00;100235.38;5081541;28;20021;-77
2023/07/03 04:18:30;;;;;;;6.25;3.17;;;;;;;19.30;100.00;100237.81;5078032;28;20052;-77
2023/07/03 04:20:56;;;;;;;3.25;2.58;;;;;;;19.32;100.00;100233.94;5074680;28;20029;-76
2023/07/03 04:23:24;;;;;;;5.80;2.65;;;;;;;19.30;100.00;100251.00;5068654;28;20040;-75
2023/07/03 04:25:52;;;;;;;4.97;2.67;;;;;;;19.25;100.00;100249.00;5059159;28;20040;-74
2023/07/03 04:28:20;;;;;;;5.45;3.17;;;;;;;19.30;100.00;100248.38;5064836;28;20033;-77
2023/07/03 04:30:47;;;;;;;4.90;3.63;;;;;;;19.33;100.00;100251.41;5077661;28;20040;-75
2023/07/03 04:33:13;;;;;;;3.42;3.13;;;;;;;19.40;100.00;100251.38;5070835;28;20074;-77
2023/07/03 04:35:39;;;;;;;3.80;3.35;;;;;;;19.46;100.00;100259.28;5055932;28;20147;-77
2023/07/03 04:38:05;;;;;;;5.00;3.10;;;;;;;19.48;100.00;100259.88;5061068;28;20048;-77
2023/07/03 04:40:31;;;;;;;4.57;3.47;;;;;;;19.54;100.00;100253.81;5068948;28;20064;-76
2023/07/03 04:42:58;;;;;;;3.72;3.05;;;;;;;19.55;100.00;100265.19;5060572;28;20029;-77
2023/07/03 04:45:26;;;;;;;7.32;3.47;;;;;;;19.59;100.00;100266.41;5063686;28;20067;-77
2023/07/03 04:47:53;;;;;;;6.88;3.88;;;;;;;19.57;100.00;100263.16;5061743;28;20028;-77
2023/07/03 04:50:24;;;;;;;6.18;3.65;;;;;;;19.57;100.00;100267.63;5058563;28;20037;-77
2023/07/03 04:52:52;;;;;;;7.32;3.28;;;;;;;19.55;100.00;100273.13;5061823;28;20418;-77
2023/07/03 04:55:21;;;;;;;3.38;3.03;;;;;;;19.54;100.00;100274.13;5065693;28;20044;-77
2023/07/03 04:57:49;;;;;;;5.95;3.55;;;;;;;19.50;100.00;100279.00;5057315;28;20040;-77
2023/07/03 05:00:19;;;;;;;4.10;3.70;;;;;;;19.50;100.00;100279.00;5059692;28;20074;-76
2023/07/03 05:02:47;;;;;;;4.53;3.85;;;;;;;19.49;100.00;100281.84;5062606;28;20511;-76
2023/07/03 05:05:16;;;;;;;4.28;3.72;;;;;;;19.45;100.00;100276.16;5057453;28;20361;-76
2023/07/03 05:07:44;;;;;;;7.45;3.65;;;;;;;19.38;100.00;100285.91;5058211;28;20041;-77
2023/07/03 05:10:12;;;;;;;4.88;3.80;;;;;;;19.32;100.00;100281.47;5057428;28;20032;-76
2023/07/03 05:12:39;;;;;;;5.20;3.95;;;;;;;19.35;100.00;100278.44;5064510;28;20044;-76
2023/07/03 05:15:08;;;;;;;5.13;3.50;;;;;;;19.33;100.00;100280.47;5059186;28;20045;-76
2023/07/03 05:17:38;;;;;;;7.25;3.35;;;;;;;19.27;100.00;100276.00;5055841;28;20358;-76
2023/07/03 05:20:11;;;;;;;5.57;3.35;;;;;;;19.23;100.00;100282.72;5057152;28;20066;-75
2023/07/03 05:22:38;;;;;;;4.88;3.92;;;;;;;19.22;100.00;100284.53;5067060;28;20052;-76
2023/07/03 05:25:06;;;;;;;8.20;4.35;;;;;;;19.20;100.00;100283.13;5061242;28;20029;-76
2023/07/03 05:27:33;;;;;;;6.32;4.60;;;;;;;19.24;100.00;100297.53;5067868;28;20037;-76
2023/07/03 05:29:58;;;;;;;7.15;4.63;;;;;;;19.37;100.00;100286.97;5071117;28;20174;-74
2023/07/03 05:32:24;;;;;;;5.45;3.95;;;;;;;19.56;100.00;100295.88;5077540;28;20119;-75
2023/07/03 05:34:49;;;;;;;5.20;4.07;;;;;;;19.65;100.00;100292.00;5078033;28;20052;-75
2023/07/03 05:37:15;;;;;;;6.07;4.20;;;;;;;19.55;100.00;100292.44;5081332;28;20053;-75
2023/07/03 05:39:41;;;;;;;7.05;3.63;;;;;;;19.50;100.00;100292.19;5068600;28;20494;-75
2023/07/03 05:42:07;;;;;;;4.40;3.67;;;;;;;19.46;100.00;100293.63;5079354;28;20024;-75
2023/07/03 05:44:33;;;;;;;5.50;4.93;;;;;;;19.59;100.00;100298.13;5066265;28;20119;-74
2023/07/03 05:46:58;;;;;;;10.25;5.22;;;;;;;19.65;100.00;100299.94;5071818;28;20127;-67
2023/07/03 05:49:24;;;;;;;6.22;4.43;;;;;;;19.70;100.00;100292.19;5066607;28;20031;-68
2023/07/03 05:51:49;;;;;;;5.25;4.20;;;;;;;19.69;100.00;100295.84;5073911;28;20021;-68
2023/07/03 05:54:16;;;;;;;9.05;5.28;;;;;;;19.78;100.00;100293.78;5074949;28;20031;-68
2023/07/03 05:56:43;;;;;;;6.45;5.65;;;;;;;19.83;100.00;100296.63;5071191;28;20033;-68
2023/07/03 05:59:08;;;;;;;6.03;5.43;;;;;;;19.93;100.00;100296.16;5070595;28;20037;-68
2023/07/03 06:01:34;;;;;;;8.32;4.65;;;;;;;19.95;100.00;100294.94;5073890;28;20031;-68
2023/07/03 06:03:59;;;;;;;7.13;4.90;;;;;;;19.93;100.00;100298.81;5071831;28;20545;-68
2023/07/03 06:06:25;;;;;;;6.88;4.70;;;;;;;19.97;100.00;100300.00;5073208;28;20384;-68
2023/07/03 06:08:50;;;;;;;8.93;4.93;;;;;;;19.99;100.00;100308.56;5064495;28;20062;-68
2023/07/03 06:11:16;;;;;;;5.53;4.72;;;;;;;19.99;100.00;100304.06;5077637;28;20472;-67
2023/07/03 06:13:41;;;;;;;5.53;3.03;;;;;;;19.84;100.00;100301.72;5073756;28;20020;-67
2023/07/03 06:16:07;;;;;;;3.55;3.25;;;;;;;19.73;100.00;100312.94;5069266;28;20495;-67
2023/07/03 06:18:32;;;;;;;2.65;2.22;;;;;;;19.64;100.00;100316.00;5076204;28;20465;-67
2023/07/03 06:20:58;;;;;;;4.60;3.55;;;;;;;19.62;100.00;100325.97;5063789;28;20134;-67
2023/07/03 06:23:23;;;;;;;4.07;3.20;;;;;;;19.62;100.00;100323.31;5067040;28;20105;-67
2023/07/03 06:25:48;;;;;;;5.50;3.33;;;;;;;19.57;100.00;100315.19;5069337;28;20031;-67
2023/07/03 06:28:14;;;;;;;4.68;3.40;;;;;;;19.55;100.00;100313.56;5076181;28;20036;-67
2023/07/03 06:30:47;;;;;;;3.88;2.95;;;;;;;19.57;100.00;100323.13;5077482;28;20040;-67
2023/07/03 06:33:12;;;;;;;3.95;3.55;;;;;;;19.58;100.00;100322.09;5084028;28;20395;-67
2023/07/03 06:35:38;;;;;;;5.78;3.63;;;;;;;19.64;100.00;100334.50;5076050;28;20043;-67
2023/07/03 06:38:03;;;;;;;5.68;3.95;;;;;;;19.76;100.00;100340.78;5074445;28;20492;-67
2023/07/03 06:40:28;;;;;;;7.32;4.38;;;;;;;19.79;100.00;100341.16;5068609;28;20036;-67
2023/07/03 06:42:54;;;;;;;7.40;4.05;;;;;;;19.84;100.00;100348.47;5066884;28;20032;-67
2023/07/03 06:45:19;;;;;;;4.95;4.03;;;;;;;19.81;100.00;100359.47;5080556;28;20089;-67
2023/07/03 06:47:45;;;;;;;4.30;3.45;;;;;;;19.76;100.00;100351.34;5068802;28;20036;-67
2023/07/03 06:50:11;;;;;;;6.05;4.53;;;;;;;19.71;100.00;100359.09;5077372;28;20115;-67
2023/07/03 06:52:37;;;;;;;6.50;4.03;;;;;;;19.66;100.00;100351.78;5066765;28;20060;-67
2023/07/03 06:55:03;;;;;;;6.10;3.83;;;;;;;19.69;100.00;100354.00;5063015;28;20029;-68
2023/07/03 06:57:29;;;;;;;5.55;3.67;;;;;;;19.68;100.00;100348.91;5070113;28;20047;-67
2023/07/03 06:59:54;;;;;;;6.30;4.03;;;;;;;19.69;100.00;100356.63;5057163;28;20037;-68
2023/07/03 07:02:20;;;;;;;4.82;4.18;;;;;;;19.74;100.00;100363.97;5061251;28;20037;-68
2023/07/03 07:04:45;;;;;;;7.28;4.53;;;;;;;19.72;100.00;100373.91;5069097;28;24635;-67
2023/07/03 07:07:11;;;;;;;6.90;4.15;;;;;;;19.72;100.00;100387.13;5066004;28;20051;-67
2023/07/03 07:09:36;;;;;;;5.88;3.97;;;;;;;19.69;100.00;100390.19;5066697;28;20066;-68
2023/07/03 07:12:02;;;;;;;5.13;3.80;;;;;;;19.62;100.00;100389.38;5067509;28;20024;-68
2023/07/03 07:14:27;;;;;;;5.88;3.30;;;;;;;19.45;100.00;100395.03;5071775;28;20310;-68
2023/07/03 07:16:52;;;;;;;5.03;3.67;;;;;;;19.37;100.00;100389.19;5075819;28;20031;-71
2023/07/03 07:19:18;;;;;;;4.28;2.80;;;;;;;19.32;100.00;100384.50;5064838;28;20049;-72
2023/07/03 07:21:43;;;;;;;5.88;2.97;;;;;;;19.40;100.00;100389.56;5065117;28;20032;-72
2023/07/03 07:24:12;;;;;;;5.18;3.38;;;;;;;19.46;100.00;100378.19;5065969;28;20028;-72
2023/07/03 07:26:37;;;;;;;4.55;3.72;;;;;;;19.48;100.00;100384.06;5058963;28;20119;-72
2023/07/03 07:29:03;;;;;;;5.07;3.63;;;;;;;19.44;100.00;100382.84;5074337;28;20548;-71
2023/07/03 07:31:31;;;;;;;5.07;3.85;;;;;;;19.44;100.00;100382.84;5066876;28;20044;-72
2023/07/03 07:33:57;;;;;;;5.20;3.55;;;;;;;19.41;100.00;100375.34;5068899;28;20443;-71
2023/07/03 07:36:25;;;;;;;5.95;3.17;;;;;;;19.40;100.00;100359.69;5068470;28;20024;-71
2023/07/03 07:38:51;;;;;;;6.00;2.80;;;;;;;19.39;100.00;100360.69;5068868;28;20051;-71
2023/07/03 07:41:17;;;;;;;7.63;3.65;;;;;;;19.37;100.00;100368.88;5072055;28;20032;-71
2023/07/03 07:43:43;;;;;;;4.43;3.28;;;;;;;19.35;100.00;100364.78;5070991;28;20093;-71
2023/07/03 07:46:09;;;;;;;4.50;3.13;;;;;;;19.37;100.00;100371.50;5072335;28;20488;-72
2023/07/03 07:48:34;;;;;;;5.53;3.08;;;;;;;19.39;100.00;100372.06;5070935;28;20539;-72
2023/07/03 07:51:00;;;;;;;5.80;2.75;;;;;;;19.39;100.00;100365.97;5077584;28;20040;-71
2023/07/03 07:53:29;;;;;;;4.00;2.85;;;;;;;19.40;100.00;100373.72;5058941;28;20433;-72
2023/07/03 07:55:58;;;;;;;7.32;2.75;;;;;;;19.41;100.00;100370.03;5059364;28;20040;-72
2023/07/03 07:58:23;;;;;;;5.18;2.67;;;;;;;19.44;100.00;100374.13;5065834;28;20142;-72
2023/07/03 08:00:54;;;;;;;3.75;2.65;;;;;;;19.44;100.00;100380.22;5069167;28;20133;-71
2023/07/03 08:03:19;;;;;;;4.10;2.63;;;;;;;19.46;100.00;100383.47;5071505;28;20033;-72
2023/07/03 08:05:44;;;;;;;3.63;2.38;;;;;;;19.50;100.00;100389.16;5062795;28;20133;-72
2023/07/03 08:08:10;;;;;;;3.90;2.47;;;;;;;19.53;100.00;100402.00;5059465;28;20443;-71
2023/07/03 08:10:35;;;;;;;3.78;2.90;;;;;;;19.61;100.00;100398.31;5059684;28;20025;-71
2023/07/03 08:13:01;;;;;;;6.97;3.28;;;;;;;19.67;100.00;100400.16;5069984;28;20062;-71
2023/07/03 08:15:27;;;;;;;7.20;3.35;;;;;;;19.74;100.00;100403.59;5057629;28;20044;-72
2023/07/03 08:17:53;;;;;;;4.07;3.45;;;;;;;19.79;100.00;100401.16;5059027;28;21742;-71
2023/07/03 08:20:18;;;;;;;4.63;2.42;;;;;;;19.73;100.00;100402.78;5057569;28;20414;-71
2023/07/03 08:22:44;;;;;;;4.28;2.30;;;;;;;19.59;100.00;100400.34;5064695;28;20035;-71
2023/07/03 08:25:10;;;;;;;4.03;2.05;;;;;;;19.51;100.00;100410.13;5069333;28;20033;-71
2023/07/03 08:27:36;;;;;;;5.10;2.80;;;;;;;19.48;100.00;100412.31;5065335;28;20041;-72
2023/07/03 08:30:04;;;;;;;6.75;2.30;;;;;;;19.51;100.00;100409.31;5055337;28;20035;-71
2023/07/03 08:32:29;;;;;;;3.53;2.08;;;;;;;19.50;100.00;100402.38;5064309;28;20238;-72
2023/07/03 08:34:55;;;;;;;4.30;2.47;;;;;;;19.48;100.00;100399.94;5069980;28;20528;-73
2023/07/03 08:37:20;;;;;;;1.90;1.40;;;;;;;19.47;100.00;100408.06;5064783;28;20090;-72
2023/07/03 08:39:46;;;;;;;5.18;1.75;;;;;;;19.47;100.00;100408.88;5068398;28;20407;-71
2023/07/03 08:42:31;;;;;;;4.05;1.40;;;;;;;19.45;100.00;100408.25;5062322;28;20036;-72
2023/07/03 08:44:58;;;;;;;2.45;1.48;;;;;;;19.47;100.00;100406.22;5079156;28;20442;-72
2023/07/03 08:47:27;;;;;;;4.13;1.27;;;;;;;19.47;100.00;100398.28;5068259;28;20098;-72
2023/07/03 08:49:53;;;;;;;4.00;2.08;;;;;;;19.48;100.00;100402.56;5063825;28;20083;-72
2023/07/03 08:52:30;;;;;;;1.60;1.00;;;;;;;19.49;100.00;100408.66;5073599;28;20384;-72
2023/07/03 08:54:57;;;;;;;6.00;0.85;;;;;;;19.51;100.00;100409.31;5060401;28;20489;-72
2023/07/03 08:57:26;;;;;;;3.65;1.55;;;;;;;19.58;100.00;100415.41;5071369;28;20089;-72
2023/07/03 08:59:53;;;;;;;1.45;1.00;;;;;;;19.58;100.00;100417.22;5060302;28;20120;-72
2023/07/03 09:02:44;;;;;;;4.95;1.67;;;;;;;19.65;100.00;100404.84;5058376;28;20408;-72
2023/07/03 09:05:22;;;;;;;5.45;2.10;;;;;;;19.75;100.00;100402.59;5077592;28;20227;-72
2023/07/03 09:07:53;;;;;;;2.33;1.25;;;;;;;19.67;100.00;100406.25;5065086;28;20108;-70
2023/07/03 09:10:29;;;;;;;2.28;1.30;;;;;;;19.64;100.00;100396.09;5069982;28;20028;-70
2023/07/03 09:13:28;;;;;;;1.90;1.00;;;;;;;19.59;100.00;100398.53;5071255;28;20062;-70
2023/07/03 09:16:23;;;;;;;2.95;1.08;;;;;;;19.52;100.00;100398.53;5058806;28;20404;-70
2023/07/03 09:18:59;;;;;;;1.52;0.77;;;;;;;19.51;100.00;100394.25;5042880;28;20045;-69
2023/07/03 09:21:26;;;;;;;2.95;0.73;;;;;;;19.53;100.00;100399.34;5069580;28;20048;-70
2023/07/03 09:24:20;;;;;;;1.67;0.75;;;;;;;19.57;100.00;100389.19;5065910;28;20035;-69
2023/07/03 09:27:10;;;;;;;3.63;0.80;;;;;;;19.66;100.00;100403.81;5068996;28;20036;-68
2023/07/03 09:29:37;;;;;;;1.20;0.60;;;;;;;19.76;100.00;100404.22;5062203;28;20493;-68
2023/07/03 09:32:03;;;;;;;1.83;0.80;;;;;;;19.77;100.00;100392.63;5067271;28;20063;-69
2023/07/03 09:34:57;;;;;;;2.33;0.90;;;;;;;19.79;100.00;100393.22;5067436;28;20123;-69
2023/07/03 09:37:23;;;;;;;2.22;0.93;;;;;;;19.83;100.00;100389.97;5070574;28;20109;-68
2023/07/03 09:39:51;;;;;;;1.52;0.82;;;;;;;19.88;100.00;100397.25;5073961;28;20476;-69
2023/07/03 09:42:17;;;;;;;2.38;0.95;;;;;;;19.90;100.00;100400.50;5065866;28;20037;-69
2023/07/03 09:44:42;;;;;;;1.45;0.90;;;;;;;19.95;100.00;100398.06;5073610;28;20024;-69
2023/07/03 09:47:24;;;;;;;1.50;1.13;;;;;;;19.99;100.00;100403.75;5074534;28;20028;-70
2023/07/03 09:49:50;;;;;;;1.77;0.98;;;;;;;20.05;100.00;100411.66;5070996;28;20111;-69
2023/07/03 09:52:15;;;;;;;2.05;0.82;;;;;;;20.10;100.00;100401.28;5069858;28;20206;-70
2023/07/03 09:54:43;;;;;;;1.00;0.70;;;;;;;20.12;100.00;100412.47;5072810;28;20093;-68
2023/07/03 09:57:24;;;;;;;1.75;0.80;;;;;;;20.06;100.00;100412.47;5066027;28;20439;-69
2023/07/03 09:59:49;;;;;;;1.30;0.70;;;;;;;20.09;100.00;100410.22;5063580;28;20453;-70
2023/07/03 10:02:14;;;;;;;3.92;0.70;;;;;;;20.08;100.00;100407.78;5070879;28;20037;-69
2023/07/03 10:04:45;;;;;;;2.92;0.82;;;;;;;20.10;100.00;100411.84;5068060;28;20110;-70
2023/07/03 10:07:15;;;;;;;1.67;0.85;;;;;;;20.16;100.00;100410.22;5079903;28;20046;-71
2023/07/03 10:09:42;;;;;;;2.47;0.65;;;;;;;20.20;100.00;100414.88;5075655;28;20032;-71
2023/07/03 10:12:20;;;;;;;2.60;0.70;;;;;;;20.19;100.00;100415.09;5084417;28;20040;-71
2023/07/03 10:14:48;;;;;;;2.42;0.70;;;;;;;20.26;100.00;100409.78;5084194;28;20033;-70
2023/07/03 10:17:15;;;;;;;2.22;1.00;;;;;;;20.29;100.00;100419.94;5078062;28;20115;-69
2023/07/03 10:19:51;;;;;;;2.15;0.82;;;;;;;20.32;100.00;100428.25;5071052;28;20580;-69
2023/07/03 10:22:18;;;;;;;2.17;1.08;;;;;;;20.35;100.00;100425.19;5070076;28;20043;-70
2023/07/03 10:24:45;;;;;;;2.78;0.75;;;;;;;20.37;100.00;100432.91;5079574;28;20020;-70
2023/07/03 10:27:13;;;;;;;2.63;1.20;;;;;;;20.36;100.00;100433.94;5078693;28;20028;-70
2023/07/03 10:29:43;;;;;;;3.38;1.30;;;;;;;20.36;100.00;100431.28;5079647;28;20514;-70
2023/07/03 10:32:13;;;;;;;2.92;1.40;;;;;;;20.34;100.00;100428.03;5075376;28;20119;-70
2023/07/03 10:34:48;;;;;;;3.17;1.58;;;;;;;20.35;100.00;100425.19;5075539;28;20076;-70
2023/07/03 10:37:17;;;;;;;4.18;1.52;;;;;;;20.34;100.00;100426.22;5078284;28;20051;-70
2023/07/03 10:39:46;;;;;;;4.00;1.60;;;;;;;20.25;100.00;100416.09;5077594;28;20033;-72
2023/07/03 10:42:38;;;;;;;4.18;2.28;;;;;;;19.97;100.00;100419.81;5065094;28;20107;-69
2023/07/03 10:45:08;;;;;;;4.13;1.42;;;;;;;19.83;100.00;100416.41;5066022;28;20044;-71
2023/07/03 10:47:40;;;;;;;4.15;1.83;;;;;;;19.83;100.00;100420.88;5067978;28;20025;-71
2023/07/03 10:50:08;;;;;;;2.67;1.92;;;;;;;19.84;100.00;100423.31;5063512;28;20573;-70
2023/07/03 10:52:45;;;;;;;7.95;2.47;;;;;;;19.98;100.00;100412.69;5067162;28;20036;-71
2023/07/03 10:55:15;;;;;;;2.03;1.75;;;;;;;20.04;100.00;100410.03;5070179;28;20541;-72
2023/07/03 10:58:02;;;;;;;3.15;2.08;;;;;;;20.10;100.00;100401.28;5070616;28;20040;-72
2023/07/03 11:00:38;;;;;;;4.38;2.33;;;;;;;20.23;100.00;100389.03;5066566;28;20104;-70
2023/07/03 11:03:16;;;;;;;2.20;1.40;;;;;;;20.27;100.00;100399.00;5072852;28;20034;-70
2023/07/03 11:05:47;;;;;;;2.45;2.25;;;;;;;20.39;100.00;100396.50;5070847;28;20020;-69
2023/07/03 11:08:20;;;;;;;2.92;2.28;;;;;;;20.42;100.00;100398.75;5068604;28;20029;-68
2023/07/03 11:11:24;;;;;;;4.65;1.73;;;;;;;20.41;100.00;100391.81;5060806;28;23179;-70
2023/07/03 11:13:53;;;;;;;2.15;1.88;;;;;;;20.46;100.00;100384.88;5064966;28;20024;-69
2023/07/03 11:16:25;;;;;;;2.17;1.50;;;;;;;20.46;100.00;100386.72;5065731;28;20036;-70
2023/07/03 11:19:09;;;;;;;2.42;1.77;;;;;;;20.48;100.00;100393.41;5064240;28;20051;-69
2023/07/03 11:22:07;;;;;;;3.17;1.75;;;;;;;20.42;100.00;100388.97;5064184;28;20170;-68
2023/07/03 11:24:40;;;;;;;5.30;2.08;;;;;;;20.45;100.00;100393.03;5068344;28;20039;-70
2023/07/03 11:27:49;;;;;;;5.07;2.65;;;;;;;20.39;100.00;100391.22;5067363;28;20056;-71